sensor_id;sensor_type;location;lat;lon;timestamp;pressure;altitude;pressure_sealevel;temperature;humidity
66430;BME280;53242;51.694;10.006;2023-03-23T00:01:38;98550.53;;;12.89;58.97
66430;BME280;53242;51.694;10.006;2023-03-23T00:04:00;98542.34;;;12.90;58.67
66430;BME280;53242;51.694;10.006;2023-03-23T00:06:25;98529.22;;;12.95;58.71
66430;BME280;53242;51.694;10.006;2023-03-23T00:08:55;98533.72;;;12.95;58.67
66430;BME280;53242;51.694;10.006;2023-03-23T00:11:23;98535.34;;;12.96;58.72
66430;BME280;53242;51.694;10.006;2023-03-23T00:13:48;98531.63;;;12.97;58.52
66430;BME280;53242;51.694;10.006;2023-03-23T00:16:13;98526.59;;;12.83;59.13
66430;BME280;53242;51.694;10.006;2023-03-23T00:18:49;98521.50;;;12.94;59.03
66430;BME280;53242;51.694;10.006;2023-03-23T00:21:14;98522.09;;;12.84;59.63
66430;BME280;53242;51.694;10.006;2023-03-23T00:23:37;98509.19;;;12.88;58.99
66430;BME280;53242;51.694;10.006;2023-03-23T00:26:00;98514.84;;;12.91;58.69
66430;BME280;53242;51.694;10.006;2023-03-23T00:28:24;98520.47;;;12.95;59.35
66430;BME280;53242;51.694;10.006;2023-03-23T00:30:48;98530.28;;;12.82;60.57
66430;BME280;53242;51.694;10.006;2023-03-23T00:33:11;98522.56;;;12.81;61.32
66430;BME280;53242;51.694;10.006;2023-03-23T00:35:35;98514.75;;;12.74;62.30
66430;BME280;53242;51.694;10.006;2023-03-23T00:37:58;98519.13;;;12.69;63.04
66430;BME280;53242;51.694;10.006;2023-03-23T00:40:22;98521.34;;;12.60;64.07
66430;BME280;53242;51.694;10.006;2023-03-23T00:42:44;98517.63;;;12.61;63.82
66430;BME280;53242;51.694;10.006;2023-03-23T00:45:08;98525.25;;;12.57;64.56
66430;BME280;53242;51.694;10.006;2023-03-23T00:47:32;98527.88;;;12.45;65.55
66430;BME280;53242;51.694;10.006;2023-03-23T00:49:58;98523.41;;;12.34;66.10
66430;BME280;53242;51.694;10.006;2023-03-23T00:52:20;98524.31;;;12.40;65.40
66430;BME280;53242;51.694;10.006;2023-03-23T00:54:43;98535.59;;;12.35;66.28
66430;BME280;53242;51.694;10.006;2023-03-23T00:57:05;98538.22;;;12.23;67.58
66430;BME280;53242;51.694;10.006;2023-03-23T00:59:28;98533.28;;;12.15;68.98
66430;BME280;53242;51.694;10.006;2023-03-23T01:01:51;98537.94;;;11.89;70.62
66430;BME280;53242;51.694;10.006;2023-03-23T01:04:15;98536.06;;;11.90;70.55
66430;BME280;53242;51.694;10.006;2023-03-23T01:06:40;98539.28;;;11.80;72.50
66430;BME280;53242;51.694;10.006;2023-03-23T01:09:03;98529.25;;;11.70;73.09
66430;BME280;53242;51.694;10.006;2023-03-23T01:11:25;98523.25;;;11.63;74.40
66430;BME280;53242;51.694;10.006;2023-03-23T01:13:47;98534.94;;;11.55;75.03
66430;BME280;53242;51.694;10.006;2023-03-23T01:16:10;98530.59;;;11.61;73.58
66430;BME280;53242;51.694;10.006;2023-03-23T01:18:33;98515.19;;;11.58;74.70
66430;BME280;53242;51.694;10.006;2023-03-23T01:20:55;98513.50;;;11.63;74.12
66430;BME280;53242;51.694;10.006;2023-03-23T01:23:18;98510.16;;;11.68;74.35
66430;BME280;53242;51.694;10.006;2023-03-23T01:25:40;98504.88;;;11.68;74.19
66430;BME280;53242;51.694;10.006;2023-03-23T01:28:02;98507.78;;;11.78;74.03
66430;BME280;53242;51.694;10.006;2023-03-23T01:30:25;98497.91;;;11.85;73.50
66430;BME280;53242;51.694;10.006;2023-03-23T01:32:49;98500.50;;;11.62;74.70
66430;BME280;53242;51.694;10.006;2023-03-23T01:35:14;98493.97;;;11.64;74.24
66430;BME280;53242;51.694;10.006;2023-03-23T01:37:37;98490.06;;;11.67;74.89
66430;BME280;53242;51.694;10.006;2023-03-23T01:40:00;98482.16;;;11.67;74.35
66430;BME280;53242;51.694;10.006;2023-03-23T01:42:24;98485.81;;;11.78;73.80
66430;BME280;53242;51.694;10.006;2023-03-23T01:47:11;98485.91;;;11.59;75.09
66430;BME280;53242;51.694;10.006;2023-03-23T01:49:36;98492.13;;;11.65;73.62
66430;BME280;53242;51.694;10.006;2023-03-23T01:52:03;98490.06;;;11.67;73.21
66430;BME280;53242;51.694;10.006;2023-03-23T01:54:28;98485.69;;;11.73;72.93
66430;BME280;53242;51.694;10.006;2023-03-23T01:57:02;98488.00;;;11.69;73.64
66430;BME280;53242;51.694;10.006;2023-03-23T01:59:26;98470.63;;;11.73;72.91
66430;BME280;53242;51.694;10.006;2023-03-23T02:02:09;98477.09;;;11.77;72.32
66430;BME280;53242;51.694;10.006;2023-03-23T02:04:33;98470.56;;;11.80;72.29
66430;BME280;53242;51.694;10.006;2023-03-23T02:06:56;98458.72;;;11.82;72.08
66430;BME280;53242;51.694;10.006;2023-03-23T02:09:22;98457.47;;;11.85;71.99
66430;BME280;53242;51.694;10.006;2023-03-23T02:11:46;98472.38;;;11.91;71.83
66430;BME280;53242;51.694;10.006;2023-03-23T02:14:09;98480.44;;;11.84;71.92
66430;BME280;53242;51.694;10.006;2023-03-23T02:26:54;98462.63;;;11.92;70.62
66430;BME280;53242;51.694;10.006;2023-03-23T02:29:36;98452.97;;;11.85;71.22
66430;BME280;53242;51.694;10.006;2023-03-23T02:32:22;98452.97;;;11.85;70.54
66430;BME280;53242;51.694;10.006;2023-03-23T02:34:56;98448.38;;;11.93;70.55
66430;BME280;53242;51.694;10.006;2023-03-23T02:37:26;98450.81;;;11.94;70.34
66430;BME280;53242;51.694;10.006;2023-03-23T02:39:52;98457.72;;;11.95;70.59
66430;BME280;53242;51.694;10.006;2023-03-23T02:42:24;98449.09;;;12.00;70.08
66430;BME280;53242;51.694;10.006;2023-03-23T02:44:49;98448.88;;;12.01;69.89
66430;BME280;53242;51.694;10.006;2023-03-23T02:47:22;98448.97;;;12.07;69.91
66430;BME280;53242;51.694;10.006;2023-03-23T02:49:48;98455.75;;;12.03;69.62
66430;BME280;53242;51.694;10.006;2023-03-23T02:52:17;98465.19;;;12.10;69.40
66430;BME280;53242;51.694;10.006;2023-03-23T02:54:43;98447.28;;;12.12;69.11
66430;BME280;53242;51.694;10.006;2023-03-23T02:57:08;98454.84;;;12.09;69.29
66430;BME280;53242;51.694;10.006;2023-03-23T02:59:34;98458.75;;;12.06;69.53
66430;BME280;53242;51.694;10.006;2023-03-23T03:02:04;98460.13;;;11.97;70.27
66430;BME280;53242;51.694;10.006;2023-03-23T03:04:28;98448.59;;;11.91;70.91
66430;BME280;53242;51.694;10.006;2023-03-23T03:07:32;98455.72;;;11.91;71.41
66430;BME280;53242;51.694;10.006;2023-03-23T03:10:02;98454.72;;;11.92;71.33
66430;BME280;53242;51.694;10.006;2023-03-23T03:12:30;98456.97;;;11.76;71.81
66430;BME280;53242;51.694;10.006;2023-03-23T03:15:08;98459.50;;;11.71;73.81
66430;BME280;53242;51.694;10.006;2023-03-23T03:17:35;98454.88;;;11.66;72.80
66430;BME280;53242;51.694;10.006;2023-03-23T03:20:03;98458.31;;;11.55;74.00
66430;BME280;53242;51.694;10.006;2023-03-23T03:22:29;98451.19;;;11.56;73.98
66430;BME280;53242;51.694;10.006;2023-03-23T03:24:52;98456.97;;;11.64;73.62
66430;BME280;53242;51.694;10.006;2023-03-23T03:27:20;98459.34;;;11.54;74.33
66430;BME280;53242;51.694;10.006;2023-03-23T03:29:54;98456.59;;;11.49;74.75
66430;BME280;53242;51.694;10.006;2023-03-23T03:32:22;98461.91;;;11.61;74.51
66430;BME280;53242;51.694;10.006;2023-03-23T03:34:47;98461.78;;;11.56;74.44
66430;BME280;53242;51.694;10.006;2023-03-23T03:37:12;98451.88;;;11.51;74.14
66430;BME280;53242;51.694;10.006;2023-03-23T03:39:36;98464.66;;;11.54;74.60
66430;BME280;53242;51.694;10.006;2023-03-23T03:41:59;98472.88;;;11.46;76.72
66430;BME280;53242;51.694;10.006;2023-03-23T03:44:22;98479.75;;;11.35;77.00
66430;BME280;53242;51.694;10.006;2023-03-23T03:46:45;98481.69;;;11.40;76.07
66430;BME280;53242;51.694;10.006;2023-03-23T03:49:09;98476.97;;;11.30;77.97
66430;BME280;53242;51.694;10.006;2023-03-23T03:51:35;98478.00;;;11.29;78.54
66430;BME280;53242;51.694;10.006;2023-03-23T03:53:57;98474.09;;;11.31;77.63
66430;BME280;53242;51.694;10.006;2023-03-23T03:56:20;98477.53;;;11.32;77.84
66430;BME280;53242;51.694;10.006;2023-03-23T03:58:59;98478.31;;;11.21;79.43
66430;BME280;53242;51.694;10.006;2023-03-23T04:01:39;98476.69;;;11.19;79.48
66430;BME280;53242;51.694;10.006;2023-03-23T04:04:02;98486.09;;;11.15;80.30
66430;BME280;53242;51.694;10.006;2023-03-23T04:06:29;98475.53;;;11.15;80.12
66430;BME280;53242;51.694;10.006;2023-03-23T04:08:51;98481.25;;;11.12;80.85
66430;BME280;53242;51.694;10.006;2023-03-23T04:11:15;98480.53;;;11.05;81.33
66430;BME280;53242;51.694;10.006;2023-03-23T04:13:38;98476.78;;;11.13;80.58
66430;BME280;53242;51.694;10.006;2023-03-23T04:16:27;98480.25;;;10.95;82.79
66430;BME280;53242;51.694;10.006;2023-03-23T04:18:51;98470.72;;;10.94;82.73
66430;BME280;53242;51.694;10.006;2023-03-23T04:21:15;98479.00;;;10.97;82.15
66430;BME280;53242;51.694;10.006;2023-03-23T04:23:40;98481.44;;;10.99;81.76
66430;BME280;53242;51.694;10.006;2023-03-23T04:26:04;98481.66;;;10.97;82.00
66430;BME280;53242;51.694;10.006;2023-03-23T04:28:36;98488.03;;;10.90;83.34
66430;BME280;53242;51.694;10.006;2023-03-23T04:31:37;98493.31;;;10.90;83.00
66430;BME280;53242;51.694;10.006;2023-03-23T04:34:11;98503.88;;;10.90;82.74
66430;BME280;53242;51.694;10.006;2023-03-23T04:36:40;98502.69;;;10.85;83.22
66430;BME280;53242;51.694;10.006;2023-03-23T04:39:10;98504.16;;;10.81;83.34
66430;BME280;53242;51.694;10.006;2023-03-23T04:41:34;98511.28;;;10.81;83.81
66430;BME280;53242;51.694;10.006;2023-03-23T04:44:17;98512.16;;;10.75;84.39
66430;BME280;53242;51.694;10.006;2023-03-23T04:46:50;98494.94;;;10.72;83.87
66430;BME280;53242;51.694;10.006;2023-03-23T04:49:16;98490.09;;;10.69;84.84
66430;BME280;53242;51.694;10.006;2023-03-23T04:51:43;98490.03;;;10.76;84.28
66430;BME280;53242;51.694;10.006;2023-03-23T04:54:17;98487.66;;;10.67;84.65
66430;BME280;53242;51.694;10.006;2023-03-23T04:56:44;98497.13;;;10.75;84.25
66430;BME280;53242;51.694;10.006;2023-03-23T04:59:10;98483.06;;;10.63;85.09
66430;BME280;53242;51.694;10.006;2023-03-23T05:01:40;98483.28;;;10.61;85.43
66430;BME280;53242;51.694;10.006;2023-03-23T05:04:12;98496.66;;;10.60;85.79
66430;BME280;53242;51.694;10.006;2023-03-23T05:06:40;98489.81;;;10.59;86.05
66430;BME280;53242;51.694;10.006;2023-03-23T05:09:09;98488.59;;;10.55;86.35
66430;BME280;53242;51.694;10.006;2023-03-23T05:11:32;98478.44;;;10.58;86.35
66430;BME280;53242;51.694;10.006;2023-03-23T05:13:55;98453.06;;;10.57;85.91
66430;BME280;53242;51.694;10.006;2023-03-23T05:16:18;98420.22;;;10.53;86.39
66430;BME280;53242;51.694;10.006;2023-03-23T05:18:41;98391.31;;;10.46;86.96
66430;BME280;53242;51.694;10.006;2023-03-23T05:21:06;98402.06;;;10.45;86.69
66430;BME280;53242;51.694;10.006;2023-03-23T05:23:32;98398.53;;;10.51;86.26
66430;BME280;53242;51.694;10.006;2023-03-23T05:26:01;98390.09;;;10.61;85.40
66430;BME280;53242;51.694;10.006;2023-03-23T05:28:25;98396.41;;;10.60;85.03
66430;BME280;53242;51.694;10.006;2023-03-23T05:30:53;98405.38;;;10.59;85.10
66430;BME280;53242;51.694;10.006;2023-03-23T05:33:16;98418.19;;;10.55;85.67
66430;BME280;53242;51.694;10.006;2023-03-23T05:35:43;98402.00;;;10.51;85.58
66430;BME280;53242;51.694;10.006;2023-03-23T05:38:07;98394.44;;;10.55;85.51
66430;BME280;53242;51.694;10.006;2023-03-23T05:40:29;98438.94;;;10.51;86.01
66430;BME280;53242;51.694;10.006;2023-03-23T05:42:56;98455.94;;;10.56;85.82
66430;BME280;53242;51.694;10.006;2023-03-23T05:45:28;98467.34;;;10.49;85.95
66430;BME280;53242;51.694;10.006;2023-03-23T05:47:50;98466.78;;;10.47;86.08
66430;BME280;53242;51.694;10.006;2023-03-23T05:50:16;98471.81;;;10.49;85.96
66430;BME280;53242;51.694;10.006;2023-03-23T05:52:39;98469.97;;;10.49;85.90
66430;BME280;53242;51.694;10.006;2023-03-23T05:55:06;98473.78;;;10.53;85.91
66430;BME280;53242;51.694;10.006;2023-03-23T05:57:32;98478.34;;;10.46;86.08
66430;BME280;53242;51.694;10.006;2023-03-23T05:59:59;98480.16;;;10.46;86.53
66430;BME280;53242;51.694;10.006;2023-03-23T06:02:23;98474.53;;;10.42;86.19
66430;BME280;53242;51.694;10.006;2023-03-23T06:04:48;98482.44;;;10.42;85.97
66430;BME280;53242;51.694;10.006;2023-03-23T06:07:31;98470.59;;;10.51;85.37
66430;BME280;53242;51.694;10.006;2023-03-23T06:09:57;98471.34;;;10.59;85.63
66430;BME280;53242;51.694;10.006;2023-03-23T06:12:20;98478.19;;;10.60;85.19
66430;BME280;53242;51.694;10.006;2023-03-23T06:14:58;98478.19;;;10.60;84.82
66430;BME280;53242;51.694;10.006;2023-03-23T06:17:36;98475.38;;;10.61;85.07
66430;BME280;53242;51.694;10.006;2023-03-23T06:19:59;98466.25;;;10.57;85.43
66430;BME280;53242;51.694;10.006;2023-03-23T06:22:22;98470.00;;;10.68;84.31
66430;BME280;53242;51.694;10.006;2023-03-23T06:25:05;98471.09;;;10.60;84.79
66430;BME280;53242;51.694;10.006;2023-03-23T06:27:35;98460.63;;;10.72;84.40
66430;BME280;53242;51.694;10.006;2023-03-23T06:29:59;98455.72;;;10.76;84.34
66430;BME280;53242;51.694;10.006;2023-03-23T06:32:22;98454.00;;;10.81;84.09
66430;BME280;53242;51.694;10.006;2023-03-23T06:34:45;98469.34;;;10.73;84.22
66430;BME280;53242;51.694;10.006;2023-03-23T06:37:25;98474.19;;;10.76;84.39
66430;BME280;53242;51.694;10.006;2023-03-23T06:39:56;98474.63;;;10.91;83.43
66430;BME280;53242;51.694;10.006;2023-03-23T06:42:24;98481.50;;;10.92;83.73
66430;BME280;53242;51.694;10.006;2023-03-23T06:44:59;98474.03;;;10.89;83.68
66430;BME280;53242;51.694;10.006;2023-03-23T06:47:23;98478.31;;;11.02;83.31
66430;BME280;53242;51.694;10.006;2023-03-23T06:49:46;98477.06;;;11.05;83.23
66430;BME280;53242;51.694;10.006;2023-03-23T06:52:21;98479.84;;;11.10;82.80
66430;BME280;53242;51.694;10.006;2023-03-23T06:54:45;98473.78;;;11.09;83.10
66430;BME280;53242;51.694;10.006;2023-03-23T06:57:09;98476.34;;;11.16;82.67
66430;BME280;53242;51.694;10.006;2023-03-23T06:59:32;98482.94;;;11.37;82.01
66430;BME280;53242;51.694;10.006;2023-03-23T07:01:56;98490.31;;;11.35;81.83
66430;BME280;53242;51.694;10.006;2023-03-23T07:04:18;98500.78;;;11.42;81.64
66430;BME280;53242;51.694;10.006;2023-03-23T07:06:52;98499.41;;;11.39;81.58
66430;BME280;53242;51.694;10.006;2023-03-23T07:09:14;98507.59;;;11.49;82.06
66430;BME280;53242;51.694;10.006;2023-03-23T07:11:37;98495.22;;;11.62;81.21
66430;BME280;53242;51.694;10.006;2023-03-23T07:14:09;98505.44;;;11.58;81.18
66430;BME280;53242;51.694;10.006;2023-03-23T07:16:32;98496.28;;;11.42;81.12
66430;BME280;53242;51.694;10.006;2023-03-23T07:18:54;98489.16;;;11.31;81.85
66430;BME280;53242;51.694;10.006;2023-03-23T07:21:17;98494.59;;;11.48;81.20
66430;BME280;53242;51.694;10.006;2023-03-23T07:23:39;98501.00;;;11.40;81.39
66430;BME280;53242;51.694;10.006;2023-03-23T07:26:06;98500.25;;;11.51;80.97
66430;BME280;53242;51.694;10.006;2023-03-23T07:28:34;98492.19;;;11.46;80.86
66430;BME280;53242;51.694;10.006;2023-03-23T07:31:04;98499.19;;;11.52;80.88
66430;BME280;53242;51.694;10.006;2023-03-23T07:33:27;98494.97;;;11.51;81.02
66430;BME280;53242;51.694;10.006;2023-03-23T07:35:52;98496.00;;;11.50;81.05
66430;BME280;53242;51.694;10.006;2023-03-23T07:38:15;98503.31;;;11.48;81.16
66430;BME280;53242;51.694;10.006;2023-03-23T07:40:42;98509.03;;;11.76;80.11
66430;BME280;53242;51.694;10.006;2023-03-23T07:43:09;98498.50;;;11.88;79.38
66430;BME280;53242;51.694;10.006;2023-03-23T07:45:51;98513.16;;;12.14;78.59
66430;BME280;53242;51.694;10.006;2023-03-23T07:48:14;98512.94;;;12.27;78.12
66430;BME280;53242;51.694;10.006;2023-03-23T07:50:37;98518.22;;;12.51;77.72
66430;BME280;53242;51.694;10.006;2023-03-23T07:53:04;98511.41;;;12.67;77.22
66430;BME280;53242;51.694;10.006;2023-03-23T07:55:28;98508.53;;;12.80;75.84
66430;BME280;53242;51.694;10.006;2023-03-23T07:57:59;98513.16;;;12.61;76.32
66430;BME280;53242;51.694;10.006;2023-03-23T08:00:22;98505.91;;;12.80;75.80
66430;BME280;53242;51.694;10.006;2023-03-23T08:02:54;98521.16;;;12.90;76.04
66430;BME280;53242;51.694;10.006;2023-03-23T08:05:38;98510.53;;;13.02;75.87
66430;BME280;53242;51.694;10.006;2023-03-23T08:08:09;98509.72;;;13.13;75.05
66430;BME280;53242;51.694;10.006;2023-03-23T08:10:50;98517.22;;;13.16;74.78
66430;BME280;53242;51.694;10.006;2023-03-23T08:13:38;98508.13;;;13.00;75.34
66430;BME280;53242;51.694;10.006;2023-03-23T08:16:14;98512.00;;;13.10;75.47
66430;BME280;53242;51.694;10.006;2023-03-23T08:19:05;98505.34;;;13.07;74.83
66430;BME280;53242;51.694;10.006;2023-03-23T08:21:46;98509.25;;;13.16;74.62
66430;BME280;53242;51.694;10.006;2023-03-23T08:24:20;98507.84;;;13.26;74.55
66430;BME280;53242;51.694;10.006;2023-03-23T08:27:09;98531.19;;;13.00;75.00
66430;BME280;53242;51.694;10.006;2023-03-23T08:29:31;98528.78;;;12.87;74.88
66430;BME280;53242;51.694;10.006;2023-03-23T08:32:00;98528.63;;;13.05;74.76
66430;BME280;53242;51.694;10.006;2023-03-23T08:34:37;98518.50;;;13.02;74.53
66430;BME280;53242;51.694;10.006;2023-03-23T08:37:07;98525.97;;;13.05;74.11
66430;BME280;53242;51.694;10.006;2023-03-23T08:39:50;98529.28;;;13.12;74.69
66430;BME280;53242;51.694;10.006;2023-03-23T08:42:32;98518.59;;;13.07;74.38
66430;BME280;53242;51.694;10.006;2023-03-23T08:45:16;98520.88;;;13.15;73.38
66430;BME280;53242;51.694;10.006;2023-03-23T08:48:04;98524.91;;;13.18;73.03
66430;BME280;53242;51.694;10.006;2023-03-23T08:50:48;98523.19;;;13.12;73.20
66430;BME280;53242;51.694;10.006;2023-03-23T08:53:43;98515.31;;;13.29;72.92
66430;BME280;53242;51.694;10.006;2023-03-23T08:56:24;98506.94;;;13.20;71.89
66430;BME280;53242;51.694;10.006;2023-03-23T08:59:04;98514.34;;;13.47;72.06
66430;BME280;53242;51.694;10.006;2023-03-23T09:01:38;98510.66;;;13.48;72.28
66430;BME280;53242;51.694;10.006;2023-03-23T09:04:13;98513.56;;;13.63;71.92
66430;BME280;53242;51.694;10.006;2023-03-23T09:06:52;98509.56;;;13.78;71.78
66430;BME280;53242;51.694;10.006;2023-03-23T09:09:14;98503.22;;;13.79;70.92
66430;BME280;53242;51.694;10.006;2023-03-23T09:11:38;98511.09;;;13.74;71.56
66430;BME280;53242;51.694;10.006;2023-03-23T09:14:02;98504.91;;;13.68;71.87
66430;BME280;53242;51.694;10.006;2023-03-23T09:16:25;98515.44;;;13.63;71.25
66430;BME280;53242;51.694;10.006;2023-03-23T09:18:47;98517.75;;;13.59;71.39
66430;BME280;53242;51.694;10.006;2023-03-23T09:21:12;98514.66;;;13.79;70.60
66430;BME280;53242;51.694;10.006;2023-03-23T09:23:34;98513.06;;;13.95;71.05
66430;BME280;53242;51.694;10.006;2023-03-23T09:25:57;98513.47;;;14.04;70.41
66430;BME280;53242;51.694;10.006;2023-03-23T09:28:21;98515.84;;;14.23;70.14
66430;BME280;53242;51.694;10.006;2023-03-23T09:30:44;98511.59;;;14.22;69.24
66430;BME280;53242;51.694;10.006;2023-03-23T09:33:07;98512.34;;;14.17;68.88
66430;BME280;53242;51.694;10.006;2023-03-23T09:35:32;98520.22;;;14.12;69.20
66430;BME280;53242;51.694;10.006;2023-03-23T09:37:57;98515.84;;;14.23;69.09
66430;BME280;53242;51.694;10.006;2023-03-23T09:40:25;98524.88;;;14.22;68.17
66430;BME280;53242;51.694;10.006;2023-03-23T09:46:09;98528.44;;;14.10;68.19
66430;BME280;53242;51.694;10.006;2023-03-23T09:48:52;98534.34;;;14.35;68.33
66430;BME280;53242;51.694;10.006;2023-03-23T09:51:32;98524.25;;;14.14;67.69
66430;BME280;53242;51.694;10.006;2023-03-23T09:54:04;98527.13;;;14.13;68.41
66430;BME280;53242;51.694;10.006;2023-03-23T09:56:30;98520.75;;;14.14;68.20
66430;BME280;53242;51.694;10.006;2023-03-23T09:58:59;98529.47;;;14.09;68.01
66430;BME280;53242;51.694;10.006;2023-03-23T10:01:38;98537.00;;;14.18;68.37
66430;BME280;53242;51.694;10.006;2023-03-23T10:04:25;98538.75;;;13.78;68.37
66430;BME280;53242;51.694;10.006;2023-03-23T10:06:49;98527.84;;;13.91;68.80
66430;BME280;53242;51.694;10.006;2023-03-23T10:09:16;98539.97;;;13.87;69.32
66430;BME280;53242;51.694;10.006;2023-03-23T10:12:16;98547.19;;;13.75;69.37
66430;BME280;53242;51.694;10.006;2023-03-23T10:22:53;98543.03;;;13.96;69.43
66430;BME280;53242;51.694;10.006;2023-03-23T10:25:24;98538.78;;;13.95;69.90
66430;BME280;53242;51.694;10.006;2023-03-23T10:27:50;98553.53;;;13.91;69.54
66430;BME280;53242;51.694;10.006;2023-03-23T10:30:19;98544.00;;;13.90;70.02
66430;BME280;53242;51.694;10.006;2023-03-23T10:33:15;98551.97;;;13.90;68.86
66430;BME280;53242;51.694;10.006;2023-03-23T10:35:55;98551.97;;;14.07;68.48
66430;BME280;53242;51.694;10.006;2023-03-23T10:38:26;98544.19;;;14.17;69.11
66430;BME280;53242;51.694;10.006;2023-03-23T10:40:59;98543.59;;;14.15;67.35
66430;BME280;53242;51.694;10.006;2023-03-23T10:43:23;98544.66;;;14.31;67.57
66430;BME280;53242;51.694;10.006;2023-03-23T10:45:55;98537.47;;;14.48;66.91
66430;BME280;53242;51.694;10.006;2023-03-23T10:48:28;98545.94;;;14.45;65.96
66430;BME280;53242;51.694;10.006;2023-03-23T10:50:55;98547.69;;;14.57;65.96
66430;BME280;53242;51.694;10.006;2023-03-23T10:53:32;98543.56;;;14.83;66.04
66430;BME280;53242;51.694;10.006;2023-03-23T10:55:55;98547.81;;;14.84;65.55
66430;BME280;53242;51.694;10.006;2023-03-23T10:58:26;98541.34;;;14.75;64.52
66430;BME280;53242;51.694;10.006;2023-03-23T11:00:51;98549.06;;;14.76;64.66
66430;BME280;53242;51.694;10.006;2023-03-23T11:05:42;98537.72;;;14.64;64.44
66430;BME280;53242;51.694;10.006;2023-03-23T11:08:16;98524.84;;;14.95;64.56
66430;BME280;53242;51.694;10.006;2023-03-23T11:10:55;98521.06;;;14.91;63.75
66430;BME280;53242;51.694;10.006;2023-03-23T11:13:20;98534.59;;;14.89;64.59
66430;BME280;53242;51.694;10.006;2023-03-23T11:15:44;98518.66;;;14.89;64.18
66430;BME280;53242;51.694;10.006;2023-03-23T11:18:38;98503.16;;;15.03;63.34
66430;BME280;53242;51.694;10.006;2023-03-23T11:21:02;98524.03;;;14.94;63.93
66430;BME280;53242;51.694;10.006;2023-03-23T11:23:34;98518.03;;;15.04;63.45
66430;BME280;53242;51.694;10.006;2023-03-23T11:26:14;98530.31;;;15.33;61.02
66430;BME280;53242;51.694;10.006;2023-03-23T11:28:51;98533.22;;;15.31;60.20
66430;BME280;53242;51.694;10.006;2023-03-23T11:31:16;98532.53;;;15.13;61.03
66430;BME280;53242;51.694;10.006;2023-03-23T11:33:51;98532.28;;;15.15;61.17
66430;BME280;53242;51.694;10.006;2023-03-23T11:36:14;98529.47;;;15.27;61.23
66430;BME280;53242;51.694;10.006;2023-03-23T11:38:37;98532.41;;;15.53;60.97
66430;BME280;53242;51.694;10.006;2023-03-23T11:41:00;98524.22;;;15.59;59.31
66430;BME280;53242;51.694;10.006;2023-03-23T11:43:24;98527.59;;;15.77;58.80
66430;BME280;53242;51.694;10.006;2023-03-23T11:46:11;98523.19;;;15.88;58.39
66430;BME280;53242;51.694;10.006;2023-03-23T11:48:48;98519.59;;;15.77;58.33
66430;BME280;53242;51.694;10.006;2023-03-23T11:51:17;98520.41;;;15.77;58.48
66430;BME280;53242;51.694;10.006;2023-03-23T11:53:47;98530.59;;;15.58;57.16
66430;BME280;53242;51.694;10.006;2023-03-23T11:56:33;98521.31;;;15.61;56.65
66430;BME280;53242;51.694;10.006;2023-03-23T11:58:57;98533.09;;;15.43;57.91
66430;BME280;53242;51.694;10.006;2023-03-23T12:01:50;98520.16;;;15.52;58.33
66430;BME280;53242;51.694;10.006;2023-03-23T12:04:19;98530.50;;;15.75;57.66
66430;BME280;53242;51.694;10.006;2023-03-23T12:06:54;98532.03;;;15.71;57.67
66430;BME280;53242;51.694;10.006;2023-03-23T12:12:16;98551.03;;;15.53;56.89
66430;BME280;53242;51.694;10.006;2023-03-23T12:14:59;98548.50;;;15.41;57.04
66430;BME280;53242;51.694;10.006;2023-03-23T12:17:31;98548.13;;;15.32;56.85
66430;BME280;53242;51.694;10.006;2023-03-23T12:20:25;98544.53;;;15.43;55.54
66430;BME280;53242;51.694;10.006;2023-03-23T12:23:14;98544.41;;;15.55;55.71
66430;BME280;53242;51.694;10.006;2023-03-23T12:26:09;98530.59;;;15.58;56.52
66430;BME280;53242;51.694;10.006;2023-03-23T12:28:39;98535.72;;;15.65;55.75
66430;BME280;53242;51.694;10.006;2023-03-23T12:31:20;98535.00;;;15.75;56.83
66430;BME280;53242;51.694;10.006;2023-03-23T12:39:05;98535.78;;;15.70;54.76
66430;BME280;53242;51.694;10.006;2023-03-23T12:41:44;98528.38;;;15.50;55.28
66430;BME280;53242;51.694;10.006;2023-03-23T12:44:11;98527.38;;;15.29;54.92
66430;BME280;53242;51.694;10.006;2023-03-23T12:46:40;98535.47;;;15.39;55.25
66430;BME280;53242;51.694;10.006;2023-03-23T12:51:42;98527.75;;;15.16;54.23
66430;BME280;53242;51.694;10.006;2023-03-23T13:04:50;98524.72;;;15.29;56.31
66430;BME280;53242;51.694;10.006;2023-03-23T13:07:19;98519.59;;;15.00;57.08
66430;BME280;53242;51.694;10.006;2023-03-23T13:09:58;98524.78;;;15.12;56.85
66430;BME280;53242;51.694;10.006;2023-03-23T13:12:23;98537.00;;;15.13;56.60
66430;BME280;53242;51.694;10.006;2023-03-23T13:20:26;98524.59;;;15.19;57.84
66430;BME280;53242;51.694;10.006;2023-03-23T13:22:55;98528.13;;;14.80;57.80
66430;BME280;53242;51.694;10.006;2023-03-23T13:25:46;98528.19;;;14.85;58.73
66430;BME280;53242;51.694;10.006;2023-03-23T13:28:14;98535.09;;;14.86;59.16
66430;BME280;53242;51.694;10.006;2023-03-23T13:30:37;98530.47;;;14.76;59.66
66430;BME280;53242;51.694;10.006;2023-03-23T13:33:11;98526.63;;;14.67;59.99
66430;BME280;53242;51.694;10.006;2023-03-23T13:35:41;98525.34;;;14.70;60.11
66430;BME280;53242;51.694;10.006;2023-03-23T13:38:19;98530.47;;;14.59;60.91
66430;BME280;53242;51.694;10.006;2023-03-23T13:40:43;98534.50;;;14.45;61.17
66430;BME280;53242;51.694;10.006;2023-03-23T13:43:07;98546.34;;;14.54;61.01
66430;BME280;53242;51.694;10.006;2023-03-23T13:48:18;98533.53;;;14.51;60.54
66430;BME280;53242;51.694;10.006;2023-03-23T13:53:14;98522.44;;;14.54;61.60
66430;BME280;53242;51.694;10.006;2023-03-23T13:55:42;98499.50;;;14.65;61.49
66430;BME280;53242;51.694;10.006;2023-03-23T13:58:10;98511.22;;;14.69;61.17
66430;BME280;53242;51.694;10.006;2023-03-23T14:00:49;98512.09;;;14.58;60.89